sensor_id;sensor_type;location;lat;lon;timestamp;temperature;humidity
54461;DHT22;40371;49.414;11.010;2023-01-25T00:01:28;2.40;99.90
54461;DHT22;40371;49.414;11.010;2023-01-25T00:03:54;2.40;99.90
54461;DHT22;40371;49.414;11.010;2023-01-25T00:06:19;2.50;99.90
54461;DHT22;40371;49.414;11.010;2023-01-25T00:08:49;2.30;99.90
54461;DHT22;40371;49.414;11.010;2023-01-25T00:11:14;2.20;99.90
54461;DHT22;40371;49.414;11.010;2023-01-25T00:13:41;2.20;99.90
54461;DHT22;40371;49.414;11.010;2023-01-25T00:16:07;2.20;99.90
54461;DHT22;40371;49.414;11.010;2023-01-25T00:18:33;2.30;99.90
54461;DHT22;40371;49.414;11.010;2023-01-25T00:20:59;2.30;99.90
54461;DHT22;40371;49.414;11.010;2023-01-25T00:23:24;2.30;99.90
54461;DHT22;40371;49.414;11.010;2023-01-25T00:25:56;2.20;99.90
54461;DHT22;40371;49.414;11.010;2023-01-25T00:28:22;2.10;99.90
54461;DHT22;40371;49.414;11.010;2023-01-25T00:30:47;2.20;99.90
54461;DHT22;40371;49.414;11.010;2023-01-25T00:35:43;2.20;99.90
54461;DHT22;40371;49.414;11.010;2023-01-25T00:38:32;2.20;99.90
54461;DHT22;40371;49.414;11.010;2023-01-25T00:40:59;2.10;99.90
54461;DHT22;40371;49.414;11.010;2023-01-25T00:43:25;2.20;99.90
54461;DHT22;40371;49.414;11.010;2023-01-25T00:45:51;2.10;99.90
54461;DHT22;40371;49.414;11.010;2023-01-25T00:48:17;2.20;99.90
54461;DHT22;40371;49.414;11.010;2023-01-25T00:50:42;2.20;99.90
54461;DHT22;40371;49.414;11.010;2023-01-25T00:53:08;2.10;99.90
54461;DHT22;40371;49.414;11.010;2023-01-25T00:55:34;2.00;99.90
54461;DHT22;40371;49.414;11.010;2023-01-25T00:57:59;2.00;99.90
54461;DHT22;40371;49.414;11.010;2023-01-25T01:00:25;2.00;99.90
54461;DHT22;40371;49.414;11.010;2023-01-25T01:02:50;2.00;99.90
54461;DHT22;40371;49.414;11.010;2023-01-25T01:05:16;1.90;99.90
54461;DHT22;40371;49.414;11.010;2023-01-25T01:07:42;2.00;99.90
54461;DHT22;40371;49.414;11.010;2023-01-25T01:10:08;2.10;99.90
54461;DHT22;40371;49.414;11.010;2023-01-25T01:12:34;2.10;99.90
54461;DHT22;40371;49.414;11.010;2023-01-25T01:15:00;2.00;99.90
54461;DHT22;40371;49.414;11.010;2023-01-25T01:17:25;2.10;99.90
54461;DHT22;40371;49.414;11.010;2023-01-25T01:19:51;2.00;99.90
54461;DHT22;40371;49.414;11.010;2023-01-25T01:22:17;1.90;99.90
54461;DHT22;40371;49.414;11.010;2023-01-25T01:24:42;1.90;99.90
54461;DHT22;40371;49.414;11.010;2023-01-25T01:27:08;2.00;99.90
54461;DHT22;40371;49.414;11.010;2023-01-25T01:29:34;2.10;99.90
54461;DHT22;40371;49.414;11.010;2023-01-25T01:31:59;2.10;99.90
54461;DHT22;40371;49.414;11.010;2023-01-25T01:34:25;2.00;99.90
54461;DHT22;40371;49.414;11.010;2023-01-25T01:36:52;2.20;99.90
54461;DHT22;40371;49.414;11.010;2023-01-25T01:39:18;1.90;99.90
54461;DHT22;40371;49.414;11.010;2023-01-25T01:41:44;1.90;99.90
54461;DHT22;40371;49.414;11.010;2023-01-25T01:44:19;1.90;99.90
54461;DHT22;40371;49.414;11.010;2023-01-25T01:46:54;2.00;99.90
54461;DHT22;40371;49.414;11.010;2023-01-25T01:49:26;2.00;99.90
54461;DHT22;40371;49.414;11.010;2023-01-25T01:52:02;2.00;99.90
54461;DHT22;40371;49.414;11.010;2023-01-25T01:57:17;1.90;99.90
54461;DHT22;40371;49.414;11.010;2023-01-25T01:59:49;2.00;99.90
54461;DHT22;40371;49.414;11.010;2023-01-25T02:02:15;2.00;99.90
54461;DHT22;40371;49.414;11.010;2023-01-25T02:04:45;1.90;99.90
54461;DHT22;40371;49.414;11.010;2023-01-25T02:07:30;1.90;99.90
54461;DHT22;40371;49.414;11.010;2023-01-25T02:09:58;2.00;99.90
54461;DHT22;40371;49.414;11.010;2023-01-25T02:12:24;1.80;99.90
54461;DHT22;40371;49.414;11.010;2023-01-25T02:14:52;1.70;99.90
54461;DHT22;40371;49.414;11.010;2023-01-25T02:17:34;1.60;99.90
54461;DHT22;40371;49.414;11.010;2023-01-25T02:22:44;1.70;99.90
54461;DHT22;40371;49.414;11.010;2023-01-25T02:25:13;1.80;99.90
54461;DHT22;40371;49.414;11.010;2023-01-25T02:27:45;1.80;99.90
54461;DHT22;40371;49.414;11.010;2023-01-25T02:30:13;1.80;99.90
54461;DHT22;40371;49.414;11.010;2023-01-25T02:32:39;1.90;99.90
54461;DHT22;40371;49.414;11.010;2023-01-25T02:35:05;1.80;99.90
54461;DHT22;40371;49.414;11.010;2023-01-25T02:37:30;1.80;99.90
54461;DHT22;40371;49.414;11.010;2023-01-25T02:39:56;1.80;99.90
54461;DHT22;40371;49.414;11.010;2023-01-25T02:42:24;1.90;99.90
54461;DHT22;40371;49.414;11.010;2023-01-25T02:44:50;1.80;99.90
54461;DHT22;40371;49.414;11.010;2023-01-25T02:47:16;1.70;99.90
54461;DHT22;40371;49.414;11.010;2023-01-25T02:49:43;1.80;99.90
54461;DHT22;40371;49.414;11.010;2023-01-25T02:52:08;1.80;99.90
54461;DHT22;40371;49.414;11.010;2023-01-25T02:54:34;1.90;99.90
54461;DHT22;40371;49.414;11.010;2023-01-25T02:57:03;1.90;99.90
54461;DHT22;40371;49.414;11.010;2023-01-25T02:59:38;1.90;99.90
54461;DHT22;40371;49.414;11.010;2023-01-25T03:02:03;1.80;99.90
54461;DHT22;40371;49.414;11.010;2023-01-25T03:04:30;1.80;99.90
54461;DHT22;40371;49.414;11.010;2023-01-25T03:06:55;1.60;99.90
54461;DHT22;40371;49.414;11.010;2023-01-25T03:09:22;1.60;99.90
54461;DHT22;40371;49.414;11.010;2023-01-25T03:11:49;1.60;99.90
54461;DHT22;40371;49.414;11.010;2023-01-25T03:14:16;1.50;99.90
54461;DHT22;40371;49.414;11.010;2023-01-25T03:16:42;1.50;99.90
54461;DHT22;40371;49.414;11.010;2023-01-25T03:19:07;1.50;99.90
54461;DHT22;40371;49.414;11.010;2023-01-25T03:21:33;1.50;99.90
54461;DHT22;40371;49.414;11.010;2023-01-25T03:24:00;1.50;99.90
54461;DHT22;40371;49.414;11.010;2023-01-25T03:26:34;1.70;99.90
54461;DHT22;40371;49.414;11.010;2023-01-25T03:29:23;1.60;99.90
54461;DHT22;40371;49.414;11.010;2023-01-25T03:31:49;1.50;99.90
54461;DHT22;40371;49.414;11.010;2023-01-25T03:34:15;1.40;99.90
54461;DHT22;40371;49.414;11.010;2023-01-25T03:36:41;1.40;99.90
54461;DHT22;40371;49.414;11.010;2023-01-25T03:39:08;1.50;99.90
54461;DHT22;40371;49.414;11.010;2023-01-25T03:41:38;1.50;99.90
54461;DHT22;40371;49.414;11.010;2023-01-25T03:44:08;1.60;99.90
54461;DHT22;40371;49.414;11.010;2023-01-25T03:46:37;1.60;99.90
54461;DHT22;40371;49.414;11.010;2023-01-25T03:49:03;1.50;99.90
54461;DHT22;40371;49.414;11.010;2023-01-25T03:51:29;1.40;99.90
54461;DHT22;40371;49.414;11.010;2023-01-25T03:53:56;1.60;99.90
54461;DHT22;40371;49.414;11.010;2023-01-25T03:56:21;1.70;99.90
54461;DHT22;40371;49.414;11.010;2023-01-25T03:58:55;1.60;99.90
54461;DHT22;40371;49.414;11.010;2023-01-25T04:01:21;1.70;99.90
54461;DHT22;40371;49.414;11.010;2023-01-25T04:03:48;1.60;99.90
54461;DHT22;40371;49.414;11.010;2023-01-25T04:06:13;1.50;99.90
54461;DHT22;40371;49.414;11.010;2023-01-25T04:08:39;1.50;99.90
54461;DHT22;40371;49.414;11.010;2023-01-25T04:11:07;1.40;99.90
54461;DHT22;40371;49.414;11.010;2023-01-25T04:13:34;1.60;99.90
54461;DHT22;40371;49.414;11.010;2023-01-25T04:16:06;1.70;99.90
54461;DHT22;40371;49.414;11.010;2023-01-25T04:18:54;1.80;99.90
54461;DHT22;40371;49.414;11.010;2023-01-25T04:21:20;1.70;99.90
54461;DHT22;40371;49.414;11.010;2023-01-25T04:23:46;1.60;99.90
54461;DHT22;40371;49.414;11.010;2023-01-25T04:26:14;1.60;99.90
54461;DHT22;40371;49.414;11.010;2023-01-25T04:28:45;1.50;99.90
54461;DHT22;40371;49.414;11.010;2023-01-25T04:31:10;1.60;99.90
54461;DHT22;40371;49.414;11.010;2023-01-25T04:33:39;1.60;99.90
54461;DHT22;40371;49.414;11.010;2023-01-25T04:36:06;1.50;99.90
54461;DHT22;40371;49.414;11.010;2023-01-25T04:38:32;1.50;99.90
54461;DHT22;40371;49.414;11.010;2023-01-25T04:40:58;1.60;99.90
54461;DHT22;40371;49.414;11.010;2023-01-25T04:43:24;1.70;99.90
54461;DHT22;40371;49.414;11.010;2023-01-25T04:45:54;1.80;99.90
54461;DHT22;40371;49.414;11.010;2023-01-25T04:48:26;1.70;99.90
54461;DHT22;40371;49.414;11.010;2023-01-25T04:50:55;1.70;99.90
54461;DHT22;40371;49.414;11.010;2023-01-25T04:53:22;1.80;99.90
54461;DHT22;40371;49.414;11.010;2023-01-25T04:55:48;1.80;99.90
54461;DHT22;40371;49.414;11.010;2023-01-25T04:58:14;1.90;99.90
54461;DHT22;40371;49.414;11.010;2023-01-25T05:00:41;1.90;99.90
54461;DHT22;40371;49.414;11.010;2023-01-25T05:03:07;1.80;99.90
54461;DHT22;40371;49.414;11.010;2023-01-25T05:05:33;1.80;99.90
54461;DHT22;40371;49.414;11.010;2023-01-25T05:08:02;1.80;99.90
54461;DHT22;40371;49.414;11.010;2023-01-25T05:10:28;1.60;99.90
54461;DHT22;40371;49.414;11.010;2023-01-25T05:13:12;1.40;99.90
54461;DHT22;40371;49.414;11.010;2023-01-25T05:15:38;1.70;99.90
54461;DHT22;40371;49.414;11.010;2023-01-25T05:18:04;1.90;99.90
54461;DHT22;40371;49.414;11.010;2023-01-25T05:20:32;1.80;99.90
54461;DHT22;40371;49.414;11.010;2023-01-25T05:22:58;1.70;99.90
54461;DHT22;40371;49.414;11.010;2023-01-25T05:25:24;1.70;99.90
54461;DHT22;40371;49.414;11.010;2023-01-25T05:28:09;1.80;99.90
54461;DHT22;40371;49.414;11.010;2023-01-25T05:30:55;1.70;99.90
54461;DHT22;40371;49.414;11.010;2023-01-25T05:33:24;1.40;99.90
54461;DHT22;40371;49.414;11.010;2023-01-25T05:35:49;1.50;99.90
54461;DHT22;40371;49.414;11.010;2023-01-25T05:38:15;1.50;99.90
54461;DHT22;40371;49.414;11.010;2023-01-25T05:40:41;1.50;99.90
54461;DHT22;40371;49.414;11.010;2023-01-25T05:43:07;1.40;99.90
54461;DHT22;40371;49.414;11.010;2023-01-25T05:45:33;1.40;99.90
54461;DHT22;40371;49.414;11.010;2023-01-25T05:48:00;1.50;99.90
54461;DHT22;40371;49.414;11.010;2023-01-25T05:50:26;1.60;99.90
54461;DHT22;40371;49.414;11.010;2023-01-25T05:52:59;1.60;99.90
54461;DHT22;40371;49.414;11.010;2023-01-25T05:55:26;1.60;99.90
54461;DHT22;40371;49.414;11.010;2023-01-25T05:57:54;1.70;99.90
54461;DHT22;40371;49.414;11.010;2023-01-25T06:00:21;1.70;99.90
54461;DHT22;40371;49.414;11.010;2023-01-25T06:02:47;1.70;99.90
54461;DHT22;40371;49.414;11.010;2023-01-25T06:05:17;1.50;99.90
54461;DHT22;40371;49.414;11.010;2023-01-25T06:07:42;1.30;99.90
54461;DHT22;40371;49.414;11.010;2023-01-25T06:10:08;1.40;99.90
54461;DHT22;40371;49.414;11.010;2023-01-25T06:12:34;1.40;99.90
54461;DHT22;40371;49.414;11.010;2023-01-25T06:15:01;1.40;99.90
54461;DHT22;40371;49.414;11.010;2023-01-25T06:17:27;1.50;99.90
54461;DHT22;40371;49.414;11.010;2023-01-25T06:20:11;1.60;99.90
54461;DHT22;40371;49.414;11.010;2023-01-25T06:22:51;1.40;99.90
54461;DHT22;40371;49.414;11.010;2023-01-25T06:25:17;1.40;99.90
54461;DHT22;40371;49.414;11.010;2023-01-25T06:27:43;1.60;99.90
54461;DHT22;40371;49.414;11.010;2023-01-25T06:30:09;1.80;99.90
54461;DHT22;40371;49.414;11.010;2023-01-25T06:32:35;1.80;99.90
54461;DHT22;40371;49.414;11.010;2023-01-25T06:35:01;1.70;99.90
54461;DHT22;40371;49.414;11.010;2023-01-25T06:37:27;1.40;99.90
54461;DHT22;40371;49.414;11.010;2023-01-25T06:39:52;1.50;99.90
54461;DHT22;40371;49.414;11.010;2023-01-25T06:42:18;1.50;99.90
54461;DHT22;40371;49.414;11.010;2023-01-25T06:44:44;1.40;99.90
54461;DHT22;40371;49.414;11.010;2023-01-25T06:47:10;1.60;99.90
54461;DHT22;40371;49.414;11.010;2023-01-25T06:49:37;1.80;99.90
54461;DHT22;40371;49.414;11.010;2023-01-25T06:52:02;1.80;99.90
54461;DHT22;40371;49.414;11.010;2023-01-25T06:54:28;1.60;99.90
54461;DHT22;40371;49.414;11.010;2023-01-25T06:56:54;1.40;99.90
54461;DHT22;40371;49.414;11.010;2023-01-25T06:59:19;1.60;99.90
54461;DHT22;40371;49.414;11.010;2023-01-25T07:01:45;1.60;99.90
54461;DHT22;40371;49.414;11.010;2023-01-25T07:04:11;1.50;99.90
54461;DHT22;40371;49.414;11.010;2023-01-25T07:06:37;1.60;99.90
54461;DHT22;40371;49.414;11.010;2023-01-25T07:09:10;1.60;99.90
54461;DHT22;40371;49.414;11.010;2023-01-25T07:11:37;1.40;99.90
54461;DHT22;40371;49.414;11.010;2023-01-25T07:14:03;1.30;99.90
54461;DHT22;40371;49.414;11.010;2023-01-25T07:16:29;1.30;99.90
54461;DHT22;40371;49.414;11.010;2023-01-25T07:19:02;1.40;99.90
54461;DHT22;40371;49.414;11.010;2023-01-25T07:21:28;1.60;99.90
54461;DHT22;40371;49.414;11.010;2023-01-25T07:23:59;1.60;99.90
54461;DHT22;40371;49.414;11.010;2023-01-25T07:26:25;1.60;99.90
54461;DHT22;40371;49.414;11.010;2023-01-25T07:28:52;1.50;99.90
54461;DHT22;40371;49.414;11.010;2023-01-25T07:31:19;1.40;99.90
54461;DHT22;40371;49.414;11.010;2023-01-25T07:33:53;1.60;99.90
54461;DHT22;40371;49.414;11.010;2023-01-25T07:36:19;1.60;99.90
54461;DHT22;40371;49.414;11.010;2023-01-25T07:38:46;1.50;99.90
54461;DHT22;40371;49.414;11.010;2023-01-25T07:41:11;1.50;99.90
54461;DHT22;40371;49.414;11.010;2023-01-25T07:43:37;1.40;99.90
54461;DHT22;40371;49.414;11.010;2023-01-25T07:46:09;1.30;99.90
54461;DHT22;40371;49.414;11.010;2023-01-25T07:48:36;1.40;99.90
54461;DHT22;40371;49.414;11.010;2023-01-25T07:51:03;1.50;99.90
54461;DHT22;40371;49.414;11.010;2023-01-25T07:53:53;1.40;99.90
54461;DHT22;40371;49.414;11.010;2023-01-25T07:56:22;1.60;99.90
54461;DHT22;40371;49.414;11.010;2023-01-25T07:58:48;1.60;99.90
54461;DHT22;40371;49.414;11.010;2023-01-25T08:01:19;1.50;99.90
54461;DHT22;40371;49.414;11.010;2023-01-25T08:03:45;1.80;99.90
54461;DHT22;40371;49.414;11.010;2023-01-25T08:06:12;1.60;99.90
54461;DHT22;40371;49.414;11.010;2023-01-25T08:08:43;1.60;99.90
54461;DHT22;40371;49.414;11.010;2023-01-25T08:11:15;1.50;99.90
54461;DHT22;40371;49.414;11.010;2023-01-25T08:13:41;1.40;99.90
54461;DHT22;40371;49.414;11.010;2023-01-25T08:16:18;1.30;99.90
54461;DHT22;40371;49.414;11.010;2023-01-25T08:18:52;1.40;99.90
54461;DHT22;40371;49.414;11.010;2023-01-25T08:21:18;1.30;99.90
54461;DHT22;40371;49.414;11.010;2023-01-25T08:23:44;1.50;99.90
54461;DHT22;40371;49.414;11.010;2023-01-25T08:26:12;1.70;99.90
54461;DHT22;40371;49.414;11.010;2023-01-25T08:28:37;1.60;99.90
54461;DHT22;40371;49.414;11.010;2023-01-25T08:31:17;1.50;99.90
54461;DHT22;40371;49.414;11.010;2023-01-25T08:33:44;1.70;99.90
54461;DHT22;40371;49.414;11.010;2023-01-25T08:36:12;1.50;99.90
54461;DHT22;40371;49.414;11.010;2023-01-25T08:38:38;1.50;99.90
54461;DHT22;40371;49.414;11.010;2023-01-25T08:41:05;1.40;99.90
54461;DHT22;40371;49.414;11.010;2023-01-25T08:43:31;1.40;99.90
54461;DHT22;40371;49.414;11.010;2023-01-25T08:45:57;1.30;99.90
54461;DHT22;40371;49.414;11.010;2023-01-25T08:48:23;1.30;99.90
54461;DHT22;40371;49.414;11.010;2023-01-25T08:50:48;1.40;99.90
54461;DHT22;40371;49.414;11.010;2023-01-25T08:53:14;1.30;99.90
54461;DHT22;40371;49.414;11.010;2023-01-25T08:55:40;1.30;99.90
54461;DHT22;40371;49.414;11.010;2023-01-25T08:58:10;1.40;99.90
54461;DHT22;40371;49.414;11.010;2023-01-25T09:00:40;1.50;99.90
54461;DHT22;40371;49.414;11.010;2023-01-25T09:03:09;1.50;99.90
54461;DHT22;40371;49.414;11.010;2023-01-25T09:05:36;1.80;99.90
54461;DHT22;40371;49.414;11.010;2023-01-25T09:08:03;1.80;99.90
54461;DHT22;40371;49.414;11.010;2023-01-25T09:10:30;1.90;99.90
54461;DHT22;40371;49.414;11.010;2023-01-25T09:12:55;1.80;99.90
54461;DHT22;40371;49.414;11.010;2023-01-25T09:15:21;1.70;99.90
54461;DHT22;40371;49.414;11.010;2023-01-25T09:17:50;1.60;99.90
54461;DHT22;40371;49.414;11.010;2023-01-25T09:20:16;1.60;99.90
54461;DHT22;40371;49.414;11.010;2023-01-25T09:22:41;1.50;99.90
54461;DHT22;40371;49.414;11.010;2023-01-25T09:25:07;1.40;99.90
54461;DHT22;40371;49.414;11.010;2023-01-25T09:27:33;1.50;99.90
54461;DHT22;40371;49.414;11.010;2023-01-25T09:29:59;1.50;99.90
54461;DHT22;40371;49.414;11.010;2023-01-25T09:32:24;1.60;99.90
54461;DHT22;40371;49.414;11.010;2023-01-25T09:34:53;1.80;99.90
54461;DHT22;40371;49.414;11.010;2023-01-25T09:37:19;1.90;99.90
54461;DHT22;40371;49.414;11.010;2023-01-25T09:39:45;2.00;99.90
54461;DHT22;40371;49.414;11.010;2023-01-25T09:42:23;2.00;99.90
54461;DHT22;40371;49.414;11.010;2023-01-25T09:45:19;2.40;99.90
54461;DHT22;40371;49.414;11.010;2023-01-25T09:53:29;2.30;99.90
54461;DHT22;40371;49.414;11.010;2023-01-25T09:56:02;2.10;99.90
54461;DHT22;40371;49.414;11.010;2023-01-25T09:58:32;2.20;99.90
54461;DHT22;40371;49.414;11.010;2023-01-25T10:01:24;2.20;99.90
54461;DHT22;40371;49.414;11.010;2023-01-25T10:04:20;2.00;99.90
54461;DHT22;40371;49.414;11.010;2023-01-25T10:06:52;1.90;99.90
54461;DHT22;40371;49.414;11.010;2023-01-25T10:09:50;1.90;99.90
54461;DHT22;40371;49.414;11.010;2023-01-25T10:12:21;1.80;99.90
54461;DHT22;40371;49.414;11.010;2023-01-25T10:14:49;1.70;99.90
54461;DHT22;40371;49.414;11.010;2023-01-25T10:23:19;1.60;99.90
54461;DHT22;40371;49.414;11.010;2023-01-25T10:30:58;1.90;99.90
54461;DHT22;40371;49.414;11.010;2023-01-25T10:33:26;2.10;99.90
54461;DHT22;40371;49.414;11.010;2023-01-25T10:35:54;2.10;99.90
54461;DHT22;40371;49.414;11.010;2023-01-25T10:38:37;2.20;99.90
54461;DHT22;40371;49.414;11.010;2023-01-25T10:41:38;2.30;99.90
54461;DHT22;40371;49.414;11.010;2023-01-25T10:44:10;2.20;99.90
54461;DHT22;40371;49.414;11.010;2023-01-25T10:46:56;1.80;99.90
54461;DHT22;40371;49.414;11.010;2023-01-25T10:51:54;1.80;99.90
54461;DHT22;40371;49.414;11.010;2023-01-25T10:54:21;1.90;99.90
54461;DHT22;40371;49.414;11.010;2023-01-25T10:56:48;1.90;99.90
54461;DHT22;40371;49.414;11.010;2023-01-25T10:59:21;1.90;99.90
54461;DHT22;40371;49.414;11.010;2023-01-25T11:01:47;1.80;99.90
54461;DHT22;40371;49.414;11.010;2023-01-25T11:04:24;1.80;99.90
54461;DHT22;40371;49.414;11.010;2023-01-25T11:06:52;1.90;99.90
54461;DHT22;40371;49.414;11.010;2023-01-25T11:14:35;1.90;99.90
54461;DHT22;40371;49.414;11.010;2023-01-25T11:17:03;1.90;99.90
54461;DHT22;40371;49.414;11.010;2023-01-25T11:19:36;1.90;99.90
54461;DHT22;40371;49.414;11.010;2023-01-25T11:22:04;2.00;99.90
54461;DHT22;40371;49.414;11.010;2023-01-25T11:24:33;2.20;99.90
54461;DHT22;40371;49.414;11.010;2023-01-25T11:27:23;2.00;99.90
54461;DHT22;40371;49.414;11.010;2023-01-25T11:30:06;2.00;99.90
54461;DHT22;40371;49.414;11.010;2023-01-25T11:32:32;1.90;99.90
54461;DHT22;40371;49.414;11.010;2023-01-25T11:34:58;2.00;99.90
54461;DHT22;40371;49.414;11.010;2023-01-25T11:37:47;2.10;99.90
54461;DHT22;40371;49.414;11.010;2023-01-25T11:40:38;2.20;99.90
54461;DHT22;40371;49.414;11.010;2023-01-25T11:46:08;2.50;99.90
54461;DHT22;40371;49.414;11.010;2023-01-25T11:51:54;2.50;99.90
54461;DHT22;40371;49.414;11.010;2023-01-25T11:54:51;2.30;99.90
54461;DHT22;40371;49.414;11.010;2023-01-25T12:08:24;2.10;99.90
54461;DHT22;40371;49.414;11.010;2023-01-25T12:11:08;2.00;99.90
54461;DHT22;40371;49.414;11.010;2023-01-25T12:24:58;2.10;99.90
54461;DHT22;40371;49.414;11.010;2023-01-25T12:35:51;2.30;99.90
54461;DHT22;40371;49.414;11.010;2023-01-25T12:38:41;2.20;99.90
54461;DHT22;40371;49.414;11.010;2023-01-25T12:46:50;2.10;99.90
54461;DHT22;40371;49.414;11.010;2023-01-25T12:49:31;2.10;99.90
54461;DHT22;40371;49.414;11.010;2023-01-25T12:52:02;2.30;99.90
54461;DHT22;40371;49.414;11.010;2023-01-25T12:54:35;2.40;99.90
54461;DHT22;40371;49.414;11.010;2023-01-25T12:57:23;2.50;99.90
54461;DHT22;40371;49.414;11.010;2023-01-25T13:00:05;2.40;99.90
54461;DHT22;40371;49.414;11.010;2023-01-25T13:02:48;2.60;99.90
54461;DHT22;40371;49.414;11.010;2023-01-25T13:05:33;2.30;99.90
54461;DHT22;40371;49.414;11.010;2023-01-25T13:11:05;2.20;99.90
54461;DHT22;40371;49.414;11.010;2023-01-25T13:13:31;2.20;99.90
54461;DHT22;40371;49.414;11.010;2023-01-25T13:18:58;1.90;99.90
54461;DHT22;40371;49.414;11.010;2023-01-25T13:35:00;2.00;99.90
54461;DHT22;40371;49.414;11.010;2023-01-25T13:37:31;2.20;99.90
54461;DHT22;40371;49.414;11.010;2023-01-25T13:40:05;2.10;99.90
54461;DHT22;40371;49.414;11.010;2023-01-25T13:43:03;2.00;99.90
54461;DHT22;40371;49.414;11.010;2023-01-25T13:45:32;1.90;99.90
54461;DHT22;40371;49.414;11.010;2023-01-25T13:48:43;2.00;99.90
54461;DHT22;40371;49.414;11.010;2023-01-25T13:50:54;2.10;99.90
54461;DHT22;40371;49.414;11.010;2023-01-25T13:53:23;1.70;99.90
54461;DHT22;40371;49.414;11.010;2023-01-25T13:55:56;1.80;99.90
54461;DHT22;40371;49.414;11.010;2023-01-25T14:01:05;1.60;99.90
54461;DHT22;40371;49.414;11.010;2023-01-25T14:03:40;1.70;99.90
54461;DHT22;40371;49.414;11.010;2023-01-25T14:06:16;1.90;99.90
54461;DHT22;40371;49.414;11.010;2023-01-25T14:08:43;2.00;99.90
54461;DHT22;40371;49.414;11.010;2023-01-25T14:11:09;2.20;99.90
54461;DHT22;40371;49.414;11.010;2023-01-25T14:13:35;2.10;99.90
54461;DHT22;40371;49.414;11.010;2023-01-25T14:16:01;2.20;99.90
54461;DHT22;40371;49.414;11.010;2023-01-25T14:18:34;1.80;99.90
54461;DHT22;40371;49.414;11.010;2023-01-25T14:21:19;1.80;99.90
54461;DHT22;40371;49.414;11.010;2023-01-25T14:23:46;2.00;99.90
54461;DHT22;40371;49.414;11.010;2023-01-25T14:26:24;1.90;99.90
54461;DHT22;40371;49.414;11.010;2023-01-25T14:28:52;1.80;99.90
54461;DHT22;40371;49.414;11.010;2023-01-25T14:31:39;1.90;99.90
54461;DHT22;40371;49.414;11.010;2023-01-25T14:34:04;2.00;99.90
54461;DHT22;40371;49.414;11.010;2023-01-25T14:36:32;2.00;99.90
54461;DHT22;40371;49.414;11.010;2023-01-25T14:38:59;2.00;99.90
54461;DHT22;40371;49.414;11.010;2023-01-25T14:41:33;2.00;99.90
54461;DHT22;40371;49.414;11.010;2023-01-25T14:44:05;1.90;99.90
54461;DHT22;40371;49.414;11.010;2023-01-25T14:46:36;1.90;99.90
54461;DHT22;40371;49.414;11.010;2023-01-25T14:49:28;1.90;99.90
54461;DHT22;40371;49.414;11.010;2023-01-25T14:52:11;1.80;99.90
54461;DHT22;40371;49.414;11.010;2023-01-25T14:57:31;2.00;99.90
54461;DHT22;40371;49.414;11.010;2023-01-25T14:59:58;2.00;99.90
54461;DHT22;40371;49.414;11.010;2023-01-25T15:02:39;2.00;99.90
54461;DHT22;40371;49.414;11.010;2023-01-25T15:05:18;1.80;99.90
54461;DHT22;40371;49.414;11.010;2023-01-25T15:10:26;1.60;99.90
54461;DHT22;40371;49.414;11.010;2023-01-25T15:13:01;1.60;99.90
54461;DHT22;40371;49.414;11.010;2023-01-25T15:15:30;1.60;99.90
54461;DHT22;40371;49.414;11.010;2023-01-25T15:17:57;1.60;99.90
54461;DHT22;40371;49.414;11.010;2023-01-25T15:20:35;1.50;99.90
54461;DHT22;40371;49.414;11.010;2023-01-25T15:25:51;1.60;99.90
54461;DHT22;40371;49.414;11.010;2023-01-25T15:28:18;1.30;99.90
54461;DHT22;40371;49.414;11.010;2023-01-25T15:30:44;1.30;99.90
54461;DHT22;40371;49.414;11.010;2023-01-25T15:33:23;1.30;99.90
54461;DHT22;40371;49.414;11.010;2023-01-25T15:35:50;1.30;99.90
54461;DHT22;40371;49.414;11.010;2023-01-25T15:38:16;1.30;99.90
54461;DHT22;40371;49.414;11.010;2023-01-25T15:40:42;1.30;99.90
54461;DHT22;40371;49.414;11.010;2023-01-25T15:43:13;1.20;99.90
54461;DHT22;40371;49.414;11.010;2023-01-25T15:45:40;1.30;99.90
54461;DHT22;40371;49.414;11.010;2023-01-25T15:48:12;1.40;99.90
54461;DHT22;40371;49.414;11.010;2023-01-25T15:50:38;1.60;99.90
54461;DHT22;40371;49.414;11.010;2023-01-25T15:53:03;1.70;99.90
54461;DHT22;40371;49.414;11.010;2023-01-25T15:55:29;1.60;99.90
54461;DHT22;40371;49.414;11.010;2023-01-25T15:57:54;1.50;99.90
54461;DHT22;40371;49.414;11.010;2023-01-25T16:00:21;1.50;99.90
54461;DHT22;40371;49.414;11.010;2023-01-25T16:02:48;1.30;99.90
54461;DHT22;40371;49.414;11.010;2023-01-25T16:05:14;1.30;99.90
54461;DHT22;40371;49.414;11.010;2023-01-25T16:07:41;1.50;99.90
54461;DHT22;40371;49.414;11.010;2023-01-25T16:10:23;1.50;99.90
54461;DHT22;40371;49.414;11.010;2023-01-25T16:12:49;1.40;99.90
54461;DHT22;40371;49.414;11.010;2023-01-25T16:15:15;1.50;99.90
54461;DHT22;40371;49.414;11.010;2023-01-25T16:17:41;1.30;99.90
54461;DHT22;40371;49.414;11.010;2023-01-25T16:20:12;1.40;99.90
54461;DHT22;40371;49.414;11.010;2023-01-25T16:22:39;1.50;99.90
54461;DHT22;40371;49.414;11.010;2023-01-25T16:25:05;1.40;99.90
54461;DHT22;40371;49.414;11.010;2023-01-25T16:27:33;1.50;99.90
54461;DHT22;40371;49.414;11.010;2023-01-25T16:30:01;1.60;99.90
54461;DHT22;40371;49.414;11.010;2023-01-25T16:32:27;1.40;99.90
54461;DHT22;40371;49.414;11.010;2023-01-25T16:34:52;1.40;99.90
54461;DHT22;40371;49.414;11.010;2023-01-25T16:37:18;1.30;99.90
54461;DHT22;40371;49.414;11.010;2023-01-25T16:39:44;1.30;99.90
54461;DHT22;40371;49.414;11.010;2023-01-25T16:42:09;1.50;99.90
54461;DHT22;40371;49.414;11.010;2023-01-25T16:44:35;1.60;99.90
54461;DHT22;40371;49.414;11.010;2023-01-25T16:47:02;1.60;99.90
54461;DHT22;40371;49.414;11.010;2023-01-25T16:49:29;1.30;99.90
54461;DHT22;40371;49.414;11.010;2023-01-25T16:51:56;1.50;99.90
54461;DHT22;40371;49.414;11.010;2023-01-25T16:54:23;1.60;99.90
54461;DHT22;40371;49.414;11.010;2023-01-25T16:56:49;1.80;99.90
54461;DHT22;40371;49.414;11.010;2023-01-25T16:59:16;1.80;99.90
54461;DHT22;40371;49.414;11.010;2023-01-25T17:01:43;1.80;99.90
54461;DHT22;40371;49.414;11.010;2023-01-25T17:04:09;1.90;99.90
54461;DHT22;40371;49.414;11.010;2023-01-25T17:06:37;1.80;99.90
54461;DHT22;40371;49.414;11.010;2023-01-25T17:09:06;1.90;99.90
54461;DHT22;40371;49.414;11.010;2023-01-25T17:11:35;1.80;99.90
54461;DHT22;40371;49.414;11.010;2023-01-25T17:14:01;1.40;99.90
54461;DHT22;40371;49.414;11.010;2023-01-25T17:16:28;1.20;99.90
54461;DHT22;40371;49.414;11.010;2023-01-25T17:18:56;1.20;99.90
54461;DHT22;40371;49.414;11.010;2023-01-25T17:21:23;1.10;99.90
54461;DHT22;40371;49.414;11.010;2023-01-25T17:23:49;1.30;99.90
54461;DHT22;40371;49.414;11.010;2023-01-25T17:26:16;1.40;99.90
54461;DHT22;40371;49.414;11.010;2023-01-25T17:28:43;1.40;99.90
54461;DHT22;40371;49.414;11.010;2023-01-25T17:31:16;1.40;99.90